Time;durP1;ratioP1;P1;durP2;ratioP2;P2;SDS_P1;SDS_P2;PMS_P1;PMS_P2;Temp;Humidity;BMP_temperature;BMP_pressure;BME280_temperature;BME280_humidity;BME280_pressure;Samples;Min_cycle;Max_cycle;Signal;HPM_P1;HPM_P2
2021/01/28 00:01:40;;;;;;;8.20;5.62;;;2.40;99.90;;;;;;1892865;76;21430;-76
2021/01/28 00:04:06;;;;;;;9.73;6.03;;;2.40;99.90;;;;;;1892802;76;21116;-76
2021/01/28 00:06:32;;;;;;;18.55;5.20;;;2.50;99.90;;;;;;1893060;76;21073;-76
2021/01/28 00:08:58;;;;;;;10.53;5.87;;;2.50;99.90;;;;;;1892864;76;21061;-76
2021/01/28 00:11:24;;;;;;;6.58;5.45;;;2.50;99.90;;;;;;1893081;76;21112;-76
2021/01/28 00:13:51;;;;;;;8.13;5.92;;;2.60;99.90;;;;;;1892983;76;21046;-76
2021/01/28 00:16:17;;;;;;;7.62;5.50;;;2.60;99.90;;;;;;1893161;76;21073;-76
2021/01/28 00:18:43;;;;;;;8.08;5.67;;;2.60;99.90;;;;;;1896220;75;21073;-75
2021/01/28 00:21:09;;;;;;;7.53;5.42;;;2.60;99.90;;;;;;1892848;76;21069;-76
2021/01/28 00:23:35;;;;;;;9.18;5.53;;;2.60;99.90;;;;;;1903586;75;21077;-74
2021/01/28 00:26:01;;;;;;;9.58;5.55;;;2.60;99.90;;;;;;1889003;76;21160;-74
2021/01/28 00:28:27;;;;;;;9.80;5.03;;;2.60;99.90;;;;;;1892960;76;21135;-76
2021/01/28 00:30:53;;;;;;;8.38;5.30;;;2.60;99.90;;;;;;1892947;76;21446;-76
2021/01/28 00:33:19;;;;;;;7.72;5.35;;;2.50;99.90;;;;;;1892958;76;21468;-76
2021/01/28 00:35:46;;;;;;;11.00;5.55;;;2.60;99.90;;;;;;1892913;76;21509;-76
2021/01/28 00:38:12;;;;;;;9.28;5.75;;;2.50;99.90;;;;;;1892921;76;21061;-76
2021/01/28 00:40:38;;;;;;;10.88;6.10;;;2.60;99.90;;;;;;1892948;76;21131;-74
2021/01/28 00:43:04;;;;;;;10.78;5.87;;;2.40;99.90;;;;;;1892915;76;21064;-76
2021/01/28 00:45:30;;;;;;;12.20;5.97;;;2.40;99.90;;;;;;1892947;76;21025;-76
2021/01/28 00:47:56;;;;;;;10.15;6.00;;;2.40;99.90;;;;;;1893031;76;21033;-75
2021/01/28 00:50:22;;;;;;;9.90;6.12;;;2.40;99.90;;;;;;1893133;76;21123;-75
2021/01/28 00:52:48;;;;;;;6.17;5.20;;;2.40;99.90;;;;;;1893136;76;21057;-75
2021/01/28 00:55:15;;;;;;;7.55;5.42;;;2.50;99.90;;;;;;1893098;76;21114;-74
2021/01/28 00:57:41;;;;;;;8.80;5.58;;;2.50;99.90;;;;;;1892935;76;21057;-74
2021/01/28 01:00:07;;;;;;;9.50;5.55;;;2.50;99.90;;;;;;1892926;76;21069;-75
2021/01/28 01:02:33;;;;;;;9.05;5.62;;;2.60;99.90;;;;;;1892945;76;21069;-76
2021/01/28 01:04:59;;;;;;;8.58;5.33;;;2.50;99.90;;;;;;1892906;76;21450;-77
2021/01/28 01:07:25;;;;;;;6.65;5.03;;;2.50;99.90;;;;;;1892920;76;21073;-76
2021/01/28 01:09:51;;;;;;;7.35;5.03;;;2.50;99.90;;;;;;1892877;76;21027;-76
2021/01/28 01:12:17;;;;;;;9.23;5.12;;;2.50;99.90;;;;;;1893022;76;21143;-75
2021/01/28 01:14:44;;;;;;;6.62;4.85;;;2.50;99.90;;;;;;1893061;76;21065;-76
2021/01/28 01:17:10;;;;;;;6.55;5.37;;;2.50;99.90;;;;;;1893156;76;21057;-74
2021/01/28 01:19:36;;;;;;;6.90;4.95;;;2.50;99.90;;;;;;1893063;76;21061;-75
2021/01/28 01:22:02;;;;;;;8.98;5.83;;;2.60;99.90;;;;;;1893062;76;21069;-76
2021/01/28 01:24:28;;;;;;;6.53;5.08;;;2.50;99.90;;;;;;1893055;76;21066;-77
2021/01/28 01:26:54;;;;;;;9.38;5.53;;;2.50;99.90;;;;;;1893259;76;21034;-75
2021/01/28 01:29:20;;;;;;;8.63;5.40;;;2.60;99.90;;;;;;1893041;76;21531;-74
2021/01/28 01:31:46;;;;;;;14.30;5.33;;;2.60;99.90;;;;;;1893017;76;21547;-77
2021/01/28 01:34:13;;;;;;;7.15;4.90;;;2.50;99.90;;;;;;1893012;76;21501;-76
2021/01/28 01:36:39;;;;;;;8.93;5.55;;;2.50;99.90;;;;;;1893148;76;21058;-76
2021/01/28 01:39:05;;;;;;;8.65;4.22;;;2.50;99.90;;;;;;1893142;76;21100;-75
2021/01/28 01:41:31;;;;;;;6.35;4.53;;;2.40;99.90;;;;;;1893131;76;21065;-74
2021/01/28 01:43:57;;;;;;;8.08;5.03;;;2.50;99.90;;;;;;1893011;76;21136;-75
2021/01/28 01:46:23;;;;;;;9.80;5.15;;;2.50;99.90;;;;;;1893136;76;21545;-75
2021/01/28 01:48:49;;;;;;;7.08;4.78;;;2.60;99.90;;;;;;1892911;76;21061;-76
2021/01/28 01:51:15;;;;;;;9.05;4.78;;;2.70;99.90;;;;;;1893120;76;21038;-76
2021/01/28 01:53:42;;;;;;;11.70;4.75;;;2.60;99.90;;;;;;1892932;76;21038;-75
2021/01/28 01:56:08;;;;;;;5.70;4.47;;;2.60;99.90;;;;;;1893111;76;21065;-75
2021/01/28 01:58:34;;;;;;;6.78;4.60;;;2.70;99.90;;;;;;1893128;76;21030;-75
2021/01/28 02:01:00;;;;;;;5.60;4.33;;;2.50;99.90;;;;;;1893246;76;21057;-75
2021/01/28 02:03:26;;;;;;;5.28;3.90;;;2.50;99.90;;;;;;1893231;76;21061;-74
2021/01/28 02:05:52;;;;;;;5.12;3.95;;;2.60;99.90;;;;;;1893211;76;21061;-75
2021/01/28 02:08:18;;;;;;;6.92;4.35;;;2.60;99.90;;;;;;1893080;76;21107;-75
2021/01/28 02:10:44;;;;;;;6.87;4.53;;;2.60;99.90;;;;;;1892888;76;21033;-75
2021/01/28 02:13:11;;;;;;;5.67;3.83;;;2.60;99.90;;;;;;1893002;76;21057;-75
2021/01/28 02:15:37;;;;;;;5.75;4.28;;;2.50;99.90;;;;;;1893011;76;21501;-76
2021/01/28 02:18:03;;;;;;;5.37;3.77;;;2.50;99.90;;;;;;1892904;76;21123;-75
2021/01/28 02:20:29;;;;;;;9.30;4.83;;;2.60;99.90;;;;;;1893142;76;21057;-75
2021/01/28 02:22:55;;;;;;;7.70;4.47;;;2.60;99.90;;;;;;1893109;76;21100;-75
2021/01/28 02:25:21;;;;;;;4.72;3.40;;;2.60;99.90;;;;;;1892861;76;21065;-75
2021/01/28 02:27:47;;;;;;;4.00;3.47;;;2.60;99.90;;;;;;1893105;76;21485;-76
2021/01/28 02:30:14;;;;;;;5.47;3.65;;;2.50;99.90;;;;;;1893026;76;21519;-74
2021/01/28 02:32:40;;;;;;;6.85;4.47;;;2.60;99.90;;;;;;1893038;76;21151;-76
2021/01/28 02:35:06;;;;;;;7.03;4.08;;;2.50;99.90;;;;;;1893070;76;21069;-75
2021/01/28 02:37:32;;;;;;;6.72;4.45;;;2.50;99.90;;;;;;1893126;76;21135;-75
2021/01/28 02:39:58;;;;;;;7.60;3.58;;;2.70;99.90;;;;;;1893111;76;21038;-76
2021/01/28 02:42:24;;;;;;;11.70;4.70;;;2.70;99.90;;;;;;1893013;76;21056;-77
2021/01/28 02:44:50;;;;;;;4.60;3.62;;;2.50;99.90;;;;;;1893006;76;21062;-76
2021/01/28 02:47:17;;;;;;;5.85;4.17;;;2.60;99.90;;;;;;1893000;76;21163;-75
2021/01/28 02:49:43;;;;;;;5.00;3.73;;;2.50;99.90;;;;;;1893136;76;21069;-76
2021/01/28 02:52:09;;;;;;;5.75;3.25;;;2.60;99.90;;;;;;1892803;76;21138;-76
2021/01/28 02:54:35;;;;;;;6.40;3.65;;;2.60;99.90;;;;;;1892613;76;21065;-76
2021/01/28 02:57:01;;;;;;;5.83;4.08;;;2.70;99.90;;;;;;1892489;76;21131;-76
2021/01/28 02:59:27;;;;;;;3.55;3.00;;;2.70;99.90;;;;;;1892410;76;21066;-77
2021/01/28 03:01:53;;;;;;;5.80;4.10;;;2.70;99.90;;;;;;1888912;76;21046;-76
2021/01/28 03:04:20;;;;;;;6.28;3.67;;;2.70;99.90;;;;;;1889499;76;21145;-77
2021/01/28 03:06:46;;;;;;;4.97;3.65;;;2.70;99.90;;;;;;1892442;76;21108;-76
2021/01/28 03:09:12;;;;;;;5.78;3.47;;;2.60;99.90;;;;;;1893802;75;21166;-75
2021/01/28 03:11:38;;;;;;;5.70;4.08;;;2.60;99.90;;;;;;1892426;76;21513;-75
2021/01/28 03:14:04;;;;;;;5.85;3.80;;;2.60;99.90;;;;;;1892386;76;21534;-74
2021/01/28 03:16:30;;;;;;;5.67;3.62;;;2.60;99.90;;;;;;1892418;76;21551;-74
2021/01/28 03:18:56;;;;;;;5.92;3.95;;;2.60;99.90;;;;;;1892449;76;21077;-74
2021/01/28 03:21:22;;;;;;;3.55;3.10;;;2.70;99.90;;;;;;1892474;76;21159;-76
2021/01/28 03:23:49;;;;;;;7.28;3.67;;;2.70;99.90;;;;;;1892469;76;21050;-75
2021/01/28 03:26:15;;;;;;;4.37;3.50;;;2.70;99.90;;;;;;1892561;76;21069;-76
2021/01/28 03:28:41;;;;;;;4.25;3.50;;;2.60;99.90;;;;;;1892295;76;21147;-76
2021/01/28 03:31:07;;;;;;;4.33;3.37;;;2.70;99.90;;;;;;1892439;76;21081;-76
2021/01/28 03:33:33;;;;;;;4.50;3.20;;;2.70;99.90;;;;;;1892287;76;21139;-76
2021/01/28 03:35:59;;;;;;;5.20;3.67;;;2.70;99.90;;;;;;1892488;76;21552;-76
2021/01/28 03:38:25;;;;;;;4.53;2.85;;;2.80;99.90;;;;;;1892205;76;21633;-76
2021/01/28 03:40:51;;;;;;;4.50;3.25;;;2.70;99.90;;;;;;1892418;76;21049;-75
2021/01/28 03:43:17;;;;;;;3.20;2.90;;;2.80;99.90;;;;;;1892287;76;21050;-76
2021/01/28 03:45:44;;;;;;;6.12;3.30;;;2.80;99.90;;;;;;1892494;76;21073;-76
2021/01/28 03:48:10;;;;;;;4.85;3.20;;;2.90;99.90;;;;;;1892394;76;21212;-76
2021/01/28 03:50:36;;;;;;;3.47;3.05;;;2.90;99.90;;;;;;1892391;76;21116;-76
2021/01/28 03:53:02;;;;;;;6.45;3.98;;;3.00;99.90;;;;;;1892343;76;21135;-75
2021/01/28 03:55:28;;;;;;;8.25;3.47;;;2.90;99.90;;;;;;1892432;76;21078;-75
2021/01/28 03:57:54;;;;;;;4.22;2.98;;;2.90;99.90;;;;;;1892594;76;21077;-76
2021/01/28 04:00:20;;;;;;;3.95;3.00;;;2.90;99.90;;;;;;1892374;76;21184;-76
2021/01/28 04:02:46;;;;;;;3.45;2.87;;;2.90;99.90;;;;;;1892455;76;21077;-77
2021/01/28 04:05:13;;;;;;;4.40;2.47;;;2.80;99.90;;;;;;1892289;76;21081;-76
2021/01/28 04:07:39;;;;;;;5.22;3.25;;;2.80;99.90;;;;;;1893076;76;21457;-77
2021/01/28 04:10:05;;;;;;;5.53;3.30;;;2.80;99.90;;;;;;1893153;76;21115;-76
2021/01/28 04:12:31;;;;;;;5.78;3.37;;;2.80;99.90;;;;;;1893352;76;21468;-77
2021/01/28 04:14:57;;;;;;;4.58;3.25;;;2.80;99.90;;;;;;1893179;76;21155;-76
2021/01/28 04:17:23;;;;;;;6.15;3.58;;;2.80;99.90;;;;;;1895066;75;21039;-76
2021/01/28 04:19:49;;;;;;;3.45;2.92;;;2.80;99.90;;;;;;1896266;76;21023;-76
2021/01/28 04:22:15;;;;;;;4.55;3.33;;;2.90;99.90;;;;;;1896253;76;21067;-76
2021/01/28 04:24:42;;;;;;;3.87;2.70;;;2.90;99.90;;;;;;1895436;76;21055;-76
2021/01/28 04:27:08;;;;;;;6.90;3.35;;;3.00;99.90;;;;;;1892547;76;21038;-76
2021/01/28 04:29:35;;;;;;;4.28;3.25;;;2.90;99.90;;;;;;1892508;76;21546;-76
2021/01/28 04:32:01;;;;;;;8.55;3.00;;;2.80;99.90;;;;;;1892329;76;21216;-77
2021/01/28 04:34:27;;;;;;;7.17;3.02;;;2.80;99.90;;;;;;1892435;76;21065;-76
2021/01/28 04:36:53;;;;;;;6.47;2.55;;;2.90;99.90;;;;;;1892315;76;21147;-76
2021/01/28 04:39:19;;;;;;;4.20;2.72;;;2.90;99.90;;;;;;1892452;76;21143;-76
2021/01/28 04:41:47;;;;;;;4.12;2.87;;;2.90;99.90;;;;;;1892508;76;21517;-77
2021/01/28 04:44:13;;;;;;;3.35;2.55;;;3.00;99.90;;;;;;1892657;76;21050;-77
2021/01/28 04:46:41;;;;;;;4.78;2.83;;;3.00;99.90;;;;;;1892711;76;21115;-76
2021/01/28 04:49:07;;;;;;;5.20;3.47;;;3.00;99.90;;;;;;1892777;75;21551;-77
2021/01/28 04:51:33;;;;;;;5.95;3.58;;;3.00;99.90;;;;;;1893026;76;21505;-76
2021/01/28 04:53:59;;;;;;;4.25;2.95;;;2.90;99.90;;;;;;1894307;75;21591;-75
2021/01/28 04:56:25;;;;;;;4.65;3.40;;;2.90;99.90;;;;;;1895963;74;21093;-72
2021/01/28 04:58:51;;;;;;;5.22;3.90;;;2.80;99.90;;;;;;1910029;75;21045;-74
2021/01/28 05:01:18;;;;;;;8.73;3.08;;;2.80;99.90;;;;;;1890571;76;21079;-74
2021/01/28 05:03:44;;;;;;;6.05;3.17;;;2.90;99.90;;;;;;1882289;76;21099;-76
2021/01/28 05:06:10;;;;;;;5.33;3.12;;;2.90;99.90;;;;;;1894307;76;21375;-75
2021/01/28 05:08:36;;;;;;;5.83;3.58;;;2.90;99.90;;;;;;1892652;76;21162;-76
2021/01/28 05:11:03;;;;;;;5.28;3.12;;;3.00;99.90;;;;;;1892540;76;21501;-76
2021/01/28 05:13:29;;;;;;;4.12;2.98;;;3.10;99.90;;;;;;1892654;76;21069;-74
2021/01/28 05:15:55;;;;;;;4.78;3.17;;;3.10;99.90;;;;;;1910213;75;21068;-77
2021/01/28 05:18:21;;;;;;;6.97;2.55;;;3.10;99.90;;;;;;1899198;75;21066;-76
2021/01/28 05:20:47;;;;;;;3.27;2.45;;;3.10;99.90;;;;;;1892559;76;21127;-76
2021/01/28 05:23:13;;;;;;;4.20;2.65;;;3.00;99.90;;;;;;1895580;75;21078;-74
2021/01/28 05:25:39;;;;;;;5.58;3.50;;;3.10;99.90;;;;;;1892652;76;21115;-74
2021/01/28 05:28:05;;;;;;;4.78;3.15;;;3.10;99.90;;;;;;1892606;76;21101;-75
2021/01/28 05:30:32;;;;;;;5.80;3.15;;;3.00;99.90;;;;;;1892594;76;21453;-75
2021/01/28 05:32:58;;;;;;;5.87;3.70;;;3.00;99.90;;;;;;1892503;76;21489;-74
2021/01/28 05:35:24;;;;;;;4.40;3.12;;;3.00;99.90;;;;;;1892642;76;21142;-74
2021/01/28 05:37:50;;;;;;;5.85;3.35;;;3.10;99.90;;;;;;1892578;76;21069;-75
2021/01/28 05:40:16;;;;;;;5.45;3.95;;;3.10;99.90;;;;;;1892585;76;21139;-74
2021/01/28 05:42:42;;;;;;;7.00;3.95;;;3.00;99.90;;;;;;1892549;76;21065;-74
2021/01/28 05:45:08;;;;;;;4.10;3.50;;;3.10;99.90;;;;;;1892626;76;21077;-75
2021/01/28 05:47:34;;;;;;;7.00;4.00;;;3.10;99.90;;;;;;1892467;76;21244;-75
2021/01/28 05:50:01;;;;;;;6.50;3.60;;;3.10;99.90;;;;;;1892413;76;21058;-75
2021/01/28 05:52:27;;;;;;;12.85;5.00;;;3.00;99.90;;;;;;1892478;76;21576;-75
2021/01/28 05:54:53;;;;;;;5.22;3.83;;;2.90;99.90;;;;;;1892632;76;21519;-75
2021/01/28 05:57:19;;;;;;;7.80;4.12;;;3.00;99.90;;;;;;1892484;76;21505;-76
2021/01/28 05:59:45;;;;;;;10.13;4.47;;;2.90;99.90;;;;;;1892621;76;21150;-75
2021/01/28 06:02:11;;;;;;;6.75;3.62;;;2.90;99.90;;;;;;1892421;76;21102;-75
2021/01/28 06:04:37;;;;;;;18.23;3.80;;;3.00;99.90;;;;;;1892573;76;21186;-76
2021/01/28 06:07:04;;;;;;;5.67;3.87;;;3.10;99.90;;;;;;1892550;76;21065;-76
2021/01/28 06:09:30;;;;;;;4.00;3.05;;;3.10;99.90;;;;;;1892459;76;21551;-76
2021/01/28 06:11:56;;;;;;;4.55;3.70;;;3.10;99.90;;;;;;1892471;76;21190;-76
2021/01/28 06:14:22;;;;;;;4.65;3.20;;;3.10;99.90;;;;;;1892468;76;21046;-76
2021/01/28 06:16:48;;;;;;;6.10;4.45;;;3.20;99.90;;;;;;1892400;76;21065;-76
2021/01/28 06:19:14;;;;;;;11.68;3.62;;;3.20;99.90;;;;;;1892514;76;21058;-75
2021/01/28 06:21:41;;;;;;;3.87;3.22;;;3.10;99.90;;;;;;1892622;76;21147;-76
2021/01/28 06:24:07;;;;;;;4.67;3.70;;;3.20;99.90;;;;;;1892679;76;21150;-76
2021/01/28 06:26:33;;;;;;;7.03;3.50;;;3.10;99.90;;;;;;1892463;76;21465;-76
2021/01/28 06:28:59;;;;;;;5.62;3.60;;;3.10;99.90;;;;;;1892444;76;21552;-77
2021/01/28 06:31:25;;;;;;;6.22;3.58;;;3.10;99.90;;;;;;1892495;76;21069;-75
2021/01/28 06:33:51;;;;;;;4.67;3.50;;;3.20;99.90;;;;;;1892486;76;21065;-75
2021/01/28 06:36:17;;;;;;;7.40;4.00;;;3.10;99.90;;;;;;1892445;76;21046;-76
2021/01/28 06:38:43;;;;;;;5.15;3.77;;;3.10;99.90;;;;;;1892541;76;21065;-76
2021/01/28 06:41:09;;;;;;;8.63;4.35;;;3.10;99.90;;;;;;1892467;76;21139;-76
2021/01/28 06:43:36;;;;;;;10.08;6.00;;;3.10;99.90;;;;;;1892355;76;21089;-76
2021/01/28 06:46:02;;;;;;;20.23;10.63;;;3.10;99.90;;;;;;1892501;76;21127;-76
2021/01/28 06:48:28;;;;;;;8.78;5.72;;;3.00;99.90;;;;;;1892407;76;21061;-76
2021/01/28 06:50:55;;;;;;;7.42;5.87;;;3.10;99.90;;;;;;1892456;76;21042;-76
2021/01/28 06:53:21;;;;;;;6.35;4.95;;;3.00;99.90;;;;;;1892542;76;21074;-77
2021/01/28 06:55:47;;;;;;;9.45;5.58;;;3.10;99.90;;;;;;1892469;76;21116;-77
2021/01/28 06:58:13;;;;;;;11.18;6.15;;;3.00;99.90;;;;;;1892791;76;21134;-78
2021/01/28 07:00:39;;;;;;;9.88;6.05;;;3.00;99.90;;;;;;1892685;76;21069;-77
2021/01/28 07:03:05;;;;;;;12.80;6.47;;;3.10;99.90;;;;;;1892518;76;21116;-76
2021/01/28 07:05:32;;;;;;;15.15;8.05;;;3.10;99.90;;;;;;1892574;76;21131;-76
2021/01/28 07:07:58;;;;;;;14.68;7.90;;;3.10;99.90;;;;;;1892559;76;21239;-78
2021/01/28 07:10:24;;;;;;;12.78;7.42;;;3.10;99.90;;;;;;1892529;76;21119;-79
2021/01/28 07:12:50;;;;;;;11.20;7.15;;;3.10;99.90;;;;;;1895753;75;21077;-78
2021/01/28 07:15:16;;;;;;;17.82;6.03;;;3.10;99.90;;;;;;1885888;76;21121;-79
2021/01/28 07:17:42;;;;;;;12.30;6.58;;;3.10;99.90;;;;;;1887924;76;21080;-77
2021/01/28 07:20:08;;;;;;;8.15;5.20;;;3.10;99.90;;;;;;1896298;75;21076;-77
2021/01/28 07:22:34;;;;;;;9.78;5.83;;;3.10;99.90;;;;;;1892763;76;21481;-77
2021/01/28 07:27:46;;;;;;;7.72;5.40;;;3.20;99.90;;;;;;1931282;73;21101;-77
2021/01/28 07:30:12;;;;;;;8.95;5.42;;;3.20;99.90;;;;;;1931991;73;21113;-76
2021/01/28 07:32:38;;;;;;;8.85;5.85;;;3.30;99.90;;;;;;1943012;72;21064;-74
2021/01/28 07:35:05;;;;;;;12.78;5.72;;;3.30;99.90;;;;;;1929649;74;21063;-75
2021/01/28 07:37:31;;;;;;;12.43;7.10;;;3.30;99.90;;;;;;1931021;74;21129;-76
2021/01/28 07:39:58;;;;;;;12.65;6.62;;;3.10;99.90;;;;;;1933933;73;21047;-74
2021/01/28 07:42:25;;;;;;;18.50;7.97;;;3.00;99.90;;;;;;1944384;73;21051;-75
2021/01/28 07:44:53;;;;;;;10.88;6.80;;;3.10;99.90;;;;;;1929443;74;21055;-75
2021/01/28 07:47:19;;;;;;;14.63;7.90;;;3.00;99.90;;;;;;1929330;74;21124;-75
2021/01/28 07:49:45;;;;;;;17.23;7.62;;;3.10;99.90;;;;;;1929412;74;21102;-74
2021/01/28 07:52:11;;;;;;;19.05;8.20;;;3.10;99.90;;;;;;1929474;74;21058;-75
2021/01/28 07:54:38;;;;;;;16.25;7.22;;;3.10;99.90;;;;;;1943230;73;21066;-76
2021/01/28 07:57:05;;;;;;;14.47;7.60;;;3.10;99.90;;;;;;1930060;74;21144;-74
2021/01/28 07:59:31;;;;;;;12.65;6.90;;;3.10;99.90;;;;;;1929521;74;21600;-77
2021/01/28 08:02:02;;;;;;;11.33;6.55;;;3.10;99.90;;;;;;1930180;74;21026;-75
2021/01/28 08:04:25;;;;;;;11.30;6.28;;;3.10;99.90;;;;;;1928811;74;21525;-74
2021/01/28 08:06:51;;;;;;;12.30;7.25;;;3.20;99.90;;;;;;1929232;74;21003;-76
2021/01/28 08:09:18;;;;;;;11.50;7.47;;;3.20;99.90;;;;;;1929227;74;21035;-77
2021/01/28 08:11:46;;;;;;;14.90;7.55;;;3.20;99.90;;;;;;1929172;74;21058;-76
2021/01/28 08:14:12;;;;;;;10.40;6.17;;;3.10;99.90;;;;;;1929118;74;21055;-79
2021/01/28 08:16:38;;;;;;;13.50;8.55;;;3.20;99.90;;;;;;1929083;74;21494;-77
2021/01/28 08:19:04;;;;;;;12.18;7.55;;;3.20;99.90;;;;;;1929175;74;21486;-78
2021/01/28 08:21:30;;;;;;;17.37;7.25;;;3.30;99.90;;;;;;1929111;74;21479;-76
2021/01/28 08:23:56;;;;;;;12.23;7.62;;;3.30;99.90;;;;;;1929183;74;21058;-77
2021/01/28 08:26:23;;;;;;;9.98;6.25;;;3.30;99.90;;;;;;1929777;74;21080;-77
2021/01/28 08:28:49;;;;;;;10.68;6.22;;;3.30;99.90;;;;;;1929725;74;21052;-73
2021/01/28 08:31:15;;;;;;;14.53;8.10;;;3.30;99.90;;;;;;1929714;74;21160;-78
2021/01/28 08:33:41;;;;;;;10.75;7.12;;;3.30;99.90;;;;;;1929735;74;21055;-76
2021/01/28 08:36:07;;;;;;;15.63;7.28;;;3.50;99.90;;;;;;1932132;73;21066;-70
2021/01/28 08:38:33;;;;;;;13.50;7.97;;;3.40;99.90;;;;;;1932693;74;21137;-70
2021/01/28 08:40:59;;;;;;;13.13;8.08;;;3.40;99.90;;;;;;1932694;74;21044;-71
2021/01/28 08:43:26;;;;;;;15.90;8.63;;;3.40;99.90;;;;;;1930229;74;21075;-73
2021/01/28 08:45:52;;;;;;;20.05;8.73;;;3.40;99.90;;;;;;1929501;74;21050;-72
2021/01/28 08:48:18;;;;;;;15.20;7.92;;;3.40;99.90;;;;;;1929534;74;21137;-73
2021/01/28 08:50:44;;;;;;;12.63;6.78;;;3.50;99.90;;;;;;1929440;74;21153;-76
2021/01/28 08:53:10;;;;;;;16.07;7.83;;;3.40;99.90;;;;;;1929615;74;21161;-74
2021/01/28 08:55:37;;;;;;;23.85;7.78;;;3.50;99.90;;;;;;1929651;74;21554;-77
2021/01/28 08:58:04;;;;;;;10.88;7.70;;;3.50;99.90;;;;;;1929955;74;21064;-77
2021/01/28 09:00:30;;;;;;;20.57;9.15;;;3.60;99.90;;;;;;1930119;74;21142;-79
2021/01/28 09:02:56;;;;;;;16.32;8.98;;;3.50;99.90;;;;;;1930081;74;21126;-78
2021/01/28 09:05:22;;;;;;;13.98;7.50;;;3.50;99.90;;;;;;1930026;74;21067;-77
2021/01/28 09:07:51;;;;;;;13.78;8.00;;;3.50;99.90;;;;;;1929881;74;21518;-78
2021/01/28 09:10:17;;;;;;;11.60;7.45;;;3.60;99.90;;;;;;1930014;74;21052;-75
2021/01/28 09:12:44;;;;;;;14.03;7.87;;;3.60;99.90;;;;;;1930047;74;21070;-76
2021/01/28 09:15:10;;;;;;;18.92;7.95;;;3.70;99.90;;;;;;1930029;74;21079;-74
2021/01/28 09:17:36;;;;;;;21.02;7.40;;;3.70;99.90;;;;;;1929920;74;21134;-77
2021/01/28 09:20:02;;;;;;;17.52;7.58;;;3.80;99.90;;;;;;1929877;74;21149;-74
2021/01/28 09:22:28;;;;;;;11.78;7.35;;;3.80;99.90;;;;;;1929856;74;21149;-74
2021/01/28 09:24:54;;;;;;;14.10;7.95;;;3.80;99.90;;;;;;1929887;74;21023;-74
2021/01/28 09:27:20;;;;;;;15.85;7.72;;;3.70;99.90;;;;;;1929883;74;21058;-74
2021/01/28 09:29:47;;;;;;;19.25;9.58;;;3.70;99.90;;;;;;1929913;74;21067;-73
2021/01/28 09:32:13;;;;;;;18.75;10.75;;;3.70;99.90;;;;;;1929902;74;21157;-75
2021/01/28 09:34:39;;;;;;;17.70;9.30;;;3.70;99.90;;;;;;1929962;74;21116;-75
2021/01/28 09:37:05;;;;;;;14.95;8.23;;;3.80;99.90;;;;;;1929661;74;21550;-76
2021/01/28 09:39:32;;;;;;;15.98;8.53;;;3.80;99.90;;;;;;1929802;74;21519;-75
2021/01/28 09:42:01;;;;;;;15.50;7.65;;;3.80;99.90;;;;;;1929798;74;21031;-75
2021/01/28 09:44:26;;;;;;;10.82;6.95;;;3.70;99.90;;;;;;1929401;74;21055;-75
2021/01/28 09:46:53;;;;;;;14.33;7.87;;;3.80;99.90;;;;;;1929689;74;21055;-75
2021/01/28 09:49:19;;;;;;;11.78;6.72;;;3.80;99.90;;;;;;1929689;74;21108;-75
2021/01/28 09:51:49;;;;;;;11.95;7.20;;;3.80;99.90;;;;;;1935667;73;21098;-76
2021/01/28 09:54:15;;;;;;;12.03;7.30;;;3.90;99.90;;;;;;1929298;74;21083;-75
2021/01/28 09:56:41;;;;;;;10.88;6.15;;;3.90;99.90;;;;;;1929694;74;21040;-77
2021/01/28 09:59:07;;;;;;;10.30;6.30;;;3.90;99.90;;;;;;1929764;74;21066;-76
2021/01/28 10:01:33;;;;;;;10.82;6.55;;;4.00;99.90;;;;;;1929929;74;21052;-78
2021/01/28 10:03:59;;;;;;;15.50;6.42;;;3.90;99.90;;;;;;1933745;72;21481;-75
2021/01/28 10:06:29;;;;;;;20.20;7.80;;;4.00;99.90;;;;;;1943635;73;21530;-76
2021/01/28 10:08:56;;;;;;;14.87;6.80;;;3.90;99.90;;;;;;1935232;72;21131;-76
2021/01/28 10:11:24;;;;;;;13.45;6.97;;;3.90;99.90;;;;;;1929579;74;21128;-76
2021/01/28 10:13:50;;;;;;;11.10;6.60;;;4.00;99.90;;;;;;1929804;74;21509;-77
2021/01/28 10:16:16;;;;;;;14.47;6.62;;;3.90;99.90;;;;;;1929558;74;21171;-76
2021/01/28 10:18:42;;;;;;;12.55;7.37;;;4.00;99.90;;;;;;1936505;73;21062;-75
2021/01/28 10:21:09;;;;;;;11.65;7.05;;;3.90;99.90;;;;;;1934895;73;21271;-75
2021/01/28 10:23:35;;;;;;;9.98;6.78;;;3.90;99.90;;;;;;1931335;73;21075;-74
2021/01/28 10:26:01;;;;;;;15.58;7.28;;;4.10;99.90;;;;;;1942671;73;21088;-75
2021/01/28 10:28:27;;;;;;;16.42;6.80;;;4.20;99.90;;;;;;1929822;74;21506;-76
2021/01/28 10:30:53;;;;;;;15.68;5.58;;;4.30;99.90;;;;;;1929693;74;21470;-76
2021/01/28 10:33:19;;;;;;;4.85;3.22;;;4.40;99.90;;;;;;1929651;74;21494;-76
2021/01/28 10:35:46;;;;;;;8.65;5.08;;;4.50;99.90;;;;;;1929631;74;21183;-76
2021/01/28 10:38:12;;;;;;;6.37;3.77;;;4.50;99.90;;;;;;1929687;74;21058;-76
2021/01/28 10:40:38;;;;;;;6.15;4.20;;;4.70;99.90;;;;;;1929685;74;21121;-75
2021/01/28 10:43:05;;;;;;;8.00;3.62;;;4.70;99.90;;;;;;1929697;74;21031;-76
2021/01/28 10:45:31;;;;;;;5.20;2.70;;;4.70;99.90;;;;;;1931065;74;21035;-76
2021/01/28 10:47:57;;;;;;;4.53;2.60;;;4.80;99.90;;;;;;1931421;74;21062;-77
2021/01/28 10:50:25;;;;;;;2.87;2.35;;;4.90;99.90;;;;;;1929609;74;21116;-76
2021/01/28 10:52:51;;;;;;;3.27;2.27;;;5.00;99.90;;;;;;1929638;74;21490;-77
2021/01/28 10:55:17;;;;;;;4.00;2.30;;;5.00;99.90;;;;;;1929567;74;21068;-77
2021/01/28 10:57:43;;;;;;;4.62;2.60;;;5.10;99.90;;;;;;1929594;74;21054;-76
2021/01/28 11:00:09;;;;;;;1.82;1.62;;;5.20;99.90;;;;;;1929632;74;21051;-77
2021/01/28 11:02:37;;;;;;;2.42;2.05;;;5.30;99.90;;;;;;1929661;74;21345;-77
2021/01/28 11:05:04;;;;;;;1.52;1.32;;;5.50;99.90;;;;;;1929560;74;21047;-77
2021/01/28 11:07:30;;;;;;;2.67;1.57;;;5.60;99.90;;;;;;1929627;74;21043;-77
2021/01/28 11:09:57;;;;;;;2.15;1.05;;;5.80;99.90;;;;;;1929379;74;21098;-77
2021/01/28 11:12:24;;;;;;;1.02;0.90;;;6.00;99.90;;;;;;1929632;74;21155;-77
2021/01/28 11:14:50;;;;;;;1.90;1.02;;;6.10;99.90;;;;;;1929693;74;21099;-77
2021/01/28 11:17:16;;;;;;;0.90;0.70;;;6.30;99.90;;;;;;1929598;74;21188;-76
2021/01/28 11:19:43;;;;;;;0.85;0.45;;;6.40;99.90;;;;;;1929621;74;21067;-77
2021/01/28 11:22:09;;;;;;;1.75;0.90;;;6.50;99.90;;;;;;1929589;74;21058;-75
2021/01/28 11:24:35;;;;;;;0.40;0.40;;;6.60;99.90;;;;;;1929598;74;21137;-77
2021/01/28 11:27:01;;;;;;;2.10;0.72;;;6.60;99.90;;;;;;1929574;74;21471;-76
2021/01/28 11:29:27;;;;;;;0.68;0.57;;;6.60;99.90;;;;;;1929657;74;21027;-75
2021/01/28 11:31:53;;;;;;;2.52;0.47;;;6.70;99.90;;;;;;1929586;74;21054;-76
2021/01/28 11:34:20;;;;;;;1.07;0.68;;;6.70;99.90;;;;;;1929563;74;21063;-76
2021/01/28 11:36:46;;;;;;;0.65;0.53;;;6.80;99.90;;;;;;1929582;74;21110;-77
2021/01/28 11:39:12;;;;;;;0.72;0.62;;;6.80;99.90;;;;;;1929657;74;21439;-76
2021/01/28 11:41:38;;;;;;;1.12;0.82;;;6.90;99.90;;;;;;1929616;74;21473;-76
2021/01/28 11:44:04;;;;;;;0.62;0.50;;;7.00;99.90;;;;;;1929640;74;21491;-76
2021/01/28 11:46:30;;;;;;;1.67;0.50;;;7.10;99.90;;;;;;1929597;74;21059;-76
2021/01/28 11:48:56;;;;;;;0.65;0.65;;;7.30;99.90;;;;;;1929678;74;21102;-77
2021/01/28 11:51:22;;;;;;;2.42;0.80;;;7.30;99.90;;;;;;1929591;74;21055;-77
2021/01/28 11:53:49;;;;;;;0.50;0.50;;;7.40;99.90;;;;;;1929616;74;21031;-75
2021/01/28 11:56:15;;;;;;;3.42;0.60;;;7.40;99.90;;;;;;1929595;74;21071;-76
2021/01/28 11:58:42;;;;;;;1.80;1.02;;;7.40;99.90;;;;;;1929517;74;21050;-76
2021/01/28 12:01:08;;;;;;;0.50;0.50;;;7.40;99.90;;;;;;1929617;74;21482;-76
2021/01/28 12:03:34;;;;;;;0.70;0.45;;;7.40;99.90;;;;;;1929623;74;21059;-77
2021/01/28 12:06:00;;;;;;;1.98;0.60;;;7.40;99.90;;;;;;1951647;72;21041;-76
2021/01/28 12:08:26;;;;;;;5.42;0.88;;;7.50;99.90;;;;;;1941369;73;21118;-76
2021/01/28 12:10:52;;;;;;;0.78;0.55;;;7.60;99.90;;;;;;1929751;74;21163;-76
2021/01/28 12:13:19;;;;;;;1.60;0.55;;;7.70;99.90;;;;;;1929660;74;21533;-76
2021/01/28 12:15:45;;;;;;;1.50;0.70;;;7.80;99.90;;;;;;1929545;74;21431;-76
2021/01/28 12:18:11;;;;;;;0.50;0.50;;;8.00;99.90;;;;;;1929725;74;21466;-74
2021/01/28 12:20:37;;;;;;;1.42;0.50;;;8.10;99.90;;;;;;1929534;74;21116;-76
2021/01/28 12:23:04;;;;;;;4.12;0.65;;;8.20;99.90;;;;;;1929761;74;21047;-75
2021/01/28 12:25:30;;;;;;;0.65;0.65;;;8.20;99.90;;;;;;1929556;74;21070;-75
2021/01/28 12:27:56;;;;;;;0.60;0.50;;;8.20;99.90;;;;;;1929739;74;21114;-75
2021/01/28 12:30:23;;;;;;;0.50;0.50;;;8.20;99.90;;;;;;1929629;74;21474;-75
2021/01/28 12:32:49;;;;;;;0.60;0.60;;;8.20;99.90;;;;;;1929615;74;21536;-74
2021/01/28 12:35:15;;;;;;;1.10;0.62;;;8.20;99.90;;;;;;1929513;74;21528;-76
2021/01/28 12:37:41;;;;;;;2.85;0.47;;;8.20;99.90;;;;;;1929574;74;21474;-75
2021/01/28 12:40:07;;;;;;;0.85;0.60;;;8.40;99.90;;;;;;1929485;74;21059;-76
2021/01/28 12:42:33;;;;;;;0.20;0.20;;;8.60;99.90;;;;;;1903992;74;21047;-76
2021/01/28 12:44:59;;;;;;;2.12;0.45;;;8.80;99.90;;;;;;1929692;74;21023;-75
2021/01/28 12:47:25;;;;;;;1.17;0.60;;;8.70;99.90;;;;;;1929691;74;21112;-75
2021/01/28 12:49:53;;;;;;;0.40;0.40;;;8.70;99.90;;;;;;1929677;74;21050;-75